createdAt,value
2022-12-22T00:00:55.375Z,2.96
2022-12-22T00:03:37.999Z,2.94
2022-12-22T00:06:25.315Z,2.91
2022-12-22T00:09:07.644Z,2.92
2022-12-22T00:11:50.102Z,2.92
2022-12-22T00:14:32.229Z,2.92
2022-12-22T00:17:17.585Z,2.90
2022-12-22T00:20:00.041Z,2.91
2022-12-22T00:22:42.252Z,2.92
2022-12-22T00:25:30.137Z,2.94
2022-12-22T00:28:11.907Z,2.96
2022-12-22T00:30:53.933Z,2.96
2022-12-22T00:33:36.561Z,2.96
2022-12-22T00:36:20.411Z,2.96
2022-12-22T00:39:02.803Z,2.97
2022-12-22T00:41:45.077Z,2.99
2022-12-22T00:44:27.312Z,3.00
2022-12-22T00:47:09.587Z,2.99
2022-12-22T00:49:52.553Z,2.96
2022-12-22T00:52:37.823Z,2.95
2022-12-22T00:55:28.765Z,2.95
2022-12-22T00:58:11.116Z,2.97
2022-12-22T01:00:53.545Z,2.97
2022-12-22T01:03:35.956Z,2.97
2022-12-22T01:06:18.508Z,2.95
2022-12-22T01:09:01.483Z,2.94
2022-12-22T01:11:43.616Z,2.95
2022-12-22T01:14:31.071Z,2.95
2022-12-22T01:17:13.421Z,2.99
2022-12-22T01:19:56.703Z,3.02
2022-12-22T01:22:39.062Z,3.04
2022-12-22T01:25:28.456Z,3.04
2022-12-22T01:28:10.259Z,3.05
2022-12-22T01:30:52.771Z,3.07
2022-12-22T01:33:34.985Z,3.10
2022-12-22T01:36:17.197Z,3.12
2022-12-22T01:38:59.662Z,3.15
2022-12-22T01:41:42.796Z,3.17
2022-12-22T01:44:33.315Z,3.18
2022-12-22T01:47:42.779Z,3.17
2022-12-22T01:50:25.070Z,3.17
2022-12-22T01:53:07.522Z,3.18
2022-12-22T01:55:49.813Z,3.21
2022-12-22T01:58:41.196Z,3.24
2022-12-22T02:01:23.594Z,3.23
2022-12-22T02:04:05.984Z,3.24
2022-12-22T02:06:59.828Z,3.25
2022-12-22T02:09:55.611Z,3.30
2022-12-22T02:12:52.817Z,3.33
2022-12-22T02:15:40.674Z,3.35
2022-12-22T02:18:30.571Z,3.32
2022-12-22T02:21:22.677Z,3.30
2022-12-22T02:24:20.264Z,3.29
2022-12-22T02:27:07.676Z,3.29
2022-12-22T02:29:54.722Z,3.32
2022-12-22T02:32:39.997Z,3.34
2022-12-22T02:35:31.457Z,3.37
2022-12-22T02:38:24.533Z,3.36
2022-12-22T02:41:15.056Z,3.36
2022-12-22T02:44:11.324Z,3.38
2022-12-22T02:47:06.762Z,3.35
2022-12-22T02:50:05.995Z,3.36
2022-12-22T02:52:52.532Z,3.35
2022-12-22T02:55:35.709Z,3.34
2022-12-22T02:58:18.021Z,3.35
2022-12-22T03:01:00.455Z,3.35
2022-12-22T03:03:43.225Z,3.33
2022-12-22T03:06:25.493Z,3.33
2022-12-22T03:09:07.871Z,3.31
2022-12-22T03:11:50.205Z,3.33
2022-12-22T03:14:32.350Z,3.32
2022-12-22T03:17:14.646Z,3.31
2022-12-22T03:19:56.599Z,3.29
2022-12-22T03:22:38.777Z,3.30
2022-12-22T03:25:21.532Z,3.30
2022-12-22T03:27:48.244Z,3.29
2022-12-22T03:30:15.301Z,3.25
2022-12-22T03:32:42.054Z,3.26
2022-12-22T03:35:09.090Z,3.27
2022-12-22T03:37:35.943Z,3.30
2022-12-22T03:40:02.704Z,3.32
2022-12-22T03:42:44.504Z,3.34
2022-12-22T03:45:31.219Z,3.36
2022-12-22T03:47:58.020Z,3.35
2022-12-22T03:50:24.807Z,3.31
2022-12-22T03:52:51.609Z,3.29
2022-12-22T03:55:18.422Z,3.29
2022-12-22T03:57:45.087Z,3.29
2022-12-22T04:00:12.113Z,3.30
2022-12-22T04:02:38.986Z,3.31
2022-12-22T04:05:06.285Z,3.30
2022-12-22T04:07:33.129Z,3.28
2022-12-22T04:10:15.237Z,3.25
2022-12-22T04:12:57.655Z,3.23
2022-12-22T04:15:27.422Z,3.21
2022-12-22T04:17:55.109Z,3.20
2022-12-22T04:20:26.812Z,3.21
2022-12-22T04:22:56.056Z,3.19
2022-12-22T04:25:24.368Z,3.17
2022-12-22T04:27:51.262Z,3.14
2022-12-22T04:30:18.831Z,3.11
2022-12-22T04:32:45.589Z,3.08
2022-12-22T04:35:12.367Z,3.08
2022-12-22T04:37:39.108Z,3.09
2022-12-22T04:40:06.491Z,3.09
2022-12-22T04:42:33.576Z,3.07
2022-12-22T04:45:00.278Z,3.02
2022-12-22T04:47:26.985Z,3.00
2022-12-22T04:49:55.732Z,2.97
2022-12-22T04:52:23.012Z,2.97
2022-12-22T04:54:49.800Z,2.98
2022-12-22T04:57:16.797Z,2.99
2022-12-22T04:59:43.575Z,2.98
2022-12-22T05:02:10.906Z,2.95
2022-12-22T05:04:37.765Z,2.96
2022-12-22T05:07:05.062Z,2.96
2022-12-22T05:09:31.752Z,2.96
2022-12-22T05:11:58.469Z,2.98
2022-12-22T05:14:25.369Z,3.02
2022-12-22T05:16:52.123Z,3.04
2022-12-22T05:19:19.439Z,3.04
2022-12-22T05:21:46.246Z,3.04
2022-12-22T05:24:13.041Z,3.02
2022-12-22T05:26:39.755Z,3.02
2022-12-22T05:29:06.501Z,3.01
2022-12-22T05:31:34.843Z,3.02
2022-12-22T05:34:01.574Z,3.04
2022-12-22T05:36:28.326Z,3.04
2022-12-22T05:38:55.061Z,3.05
2022-12-22T05:41:21.747Z,3.05
2022-12-22T05:43:48.456Z,3.05
2022-12-22T05:46:15.239Z,3.04
2022-12-22T05:48:42.081Z,3.04
2022-12-22T05:51:09.928Z,3.06
2022-12-22T05:53:37.970Z,3.09
2022-12-22T05:56:05.800Z,3.13
2022-12-22T05:58:33.263Z,3.16
2022-12-22T06:01:01.233Z,3.16
2022-12-22T06:03:29.268Z,3.14
2022-12-22T06:05:56.709Z,3.10
2022-12-22T06:08:23.938Z,3.05
2022-12-22T06:10:51.250Z,3.03
2022-12-22T06:13:17.958Z,3.02
2022-12-22T06:15:44.783Z,3.02
2022-12-22T06:18:11.565Z,3.02
2022-12-22T06:20:38.333Z,3.01
2022-12-22T06:23:05.091Z,2.95
2022-12-22T06:25:32.034Z,2.86
2022-12-22T06:27:58.971Z,2.83
2022-12-22T06:30:32.658Z,2.79
2022-12-22T06:33:00.334Z,2.73
2022-12-22T06:35:27.081Z,2.72
2022-12-22T06:37:53.844Z,2.74
2022-12-22T06:40:20.722Z,2.73
2022-12-22T06:43:08.264Z,2.71
2022-12-22T06:45:39.170Z,2.63
2022-12-22T06:48:06.914Z,2.63
2022-12-22T06:50:33.752Z,2.65
2022-12-22T06:53:01.044Z,2.67
2022-12-22T06:55:27.942Z,2.67
2022-12-22T06:57:54.815Z,2.71
2022-12-22T07:00:21.957Z,2.73
2022-12-22T07:02:48.872Z,2.62
2022-12-22T07:05:16.018Z,2.54
2022-12-22T07:07:42.952Z,2.47
2022-12-22T07:10:10.142Z,2.39
2022-12-22T07:12:36.910Z,2.32
2022-12-22T07:15:04.205Z,2.31
2022-12-22T07:17:30.908Z,2.34
2022-12-22T07:19:57.625Z,2.38
2022-12-22T07:22:29.870Z,2.40
2022-12-22T07:24:58.622Z,2.41
2022-12-22T07:27:25.668Z,2.40
2022-12-22T07:29:52.414Z,2.44
2022-12-22T07:32:19.122Z,2.50
2022-12-22T07:34:46.163Z,2.54
2022-12-22T07:37:13.844Z,2.57
2022-12-22T07:39:40.799Z,2.61
2022-12-22T07:42:22.988Z,2.65
2022-12-22T07:44:49.688Z,2.69
2022-12-22T07:47:16.405Z,2.69
2022-12-22T07:49:58.839Z,2.72
2022-12-22T07:52:25.628Z,2.82
2022-12-22T07:54:52.346Z,2.98
2022-12-22T07:57:19.336Z,3.21
2022-12-22T07:59:46.107Z,3.37
2022-12-22T08:02:13.953Z,3.47
2022-12-22T08:04:40.855Z,3.65
2022-12-22T08:07:07.706Z,3.73
2022-12-22T08:09:34.453Z,3.76
2022-12-22T08:12:01.218Z,3.76
2022-12-22T08:14:28.036Z,3.79
2022-12-22T08:16:54.810Z,3.79
2022-12-22T08:19:21.590Z,3.79
2022-12-22T08:21:52.906Z,3.78
2022-12-22T08:24:20.659Z,3.76
2022-12-22T08:26:50.649Z,3.91
2022-12-22T08:29:20.184Z,4.11
2022-12-22T08:31:47.033Z,4.52
2022-12-22T08:34:16.619Z,5.08
2022-12-22T08:36:47.772Z,5.84
2022-12-22T08:39:16.387Z,6.43
2022-12-22T08:41:50.349Z,6.82
2022-12-22T08:44:21.899Z,6.98
2022-12-22T08:46:49.518Z,7.20
2022-12-22T08:49:17.115Z,7.40
2022-12-22T08:51:44.784Z,7.58
2022-12-22T08:54:12.259Z,7.67
2022-12-22T08:56:39.353Z,7.83
2022-12-22T08:59:07.956Z,7.99
2022-12-22T09:01:38.595Z,8.16
2022-12-22T09:04:07.154Z,8.17
2022-12-22T09:06:40.637Z,8.14
2022-12-22T09:09:09.505Z,8.06
2022-12-22T09:11:36.360Z,8.04
2022-12-22T09:14:03.328Z,7.86
2022-12-22T09:16:32.456Z,7.68
2022-12-22T09:18:59.675Z,7.50
2022-12-22T09:21:27.252Z,7.38
2022-12-22T09:23:54.913Z,7.39
2022-12-22T09:26:23.433Z,7.49
2022-12-22T09:28:51.120Z,7.68
2022-12-22T09:31:20.809Z,7.90
2022-12-22T09:33:48.067Z,8.01
2022-12-22T09:36:19.745Z,8.01
2022-12-22T09:38:47.355Z,8.13
2022-12-22T09:41:19.485Z,8.29
2022-12-22T09:43:47.041Z,8.32
2022-12-22T09:46:21.908Z,8.34
2022-12-22T09:48:49.352Z,8.49
2022-12-22T09:51:22.697Z,8.78
2022-12-22T09:53:58.525Z,9.18
2022-12-22T09:56:27.269Z,9.54
2022-12-22T09:58:54.096Z,9.79
2022-12-22T10:01:28.473Z,9.95
2022-12-22T10:04:04.765Z,10.02
2022-12-22T10:06:40.667Z,10.03
2022-12-22T10:09:46.125Z,10.05
2022-12-22T10:12:06.753Z,10.19
2022-12-22T10:14:38.358Z,10.30
2022-12-22T10:17:22.122Z,10.38
2022-12-22T10:19:51.724Z,10.65
2022-12-22T10:22:27.551Z,10.88
2022-12-22T10:24:54.747Z,11.08
2022-12-22T10:27:29.291Z,11.17
2022-12-22T10:30:17.940Z,11.09
2022-12-22T10:33:05.387Z,10.98
2022-12-22T10:35:47.514Z,10.93
2022-12-22T10:38:29.338Z,10.91
2022-12-22T10:41:02.896Z,10.89
2022-12-22T10:43:34.186Z,10.93
2022-12-22T10:46:02.350Z,10.96
2022-12-22T10:48:32.720Z,10.88
2022-12-22T10:51:00.382Z,10.80
2022-12-22T10:53:43.286Z,10.72
2022-12-22T10:56:20.978Z,10.48
2022-12-22T10:58:51.223Z,10.18
2022-12-22T11:01:26.368Z,10.11
2022-12-22T11:03:53.367Z,10.08
2022-12-22T11:06:20.542Z,10.08
2022-12-22T11:08:51.544Z,10.33
2022-12-22T11:11:26.254Z,10.60
2022-12-22T11:14:03.038Z,10.85
2022-12-22T11:16:40.275Z,11.11
2022-12-22T11:19:29.749Z,11.28
2022-12-22T11:22:05.461Z,11.39
2022-12-22T11:24:48.476Z,11.47
2022-12-22T11:27:46.079Z,11.51
2022-12-22T11:30:19.869Z,11.70
2022-12-22T11:32:54.066Z,11.60
2022-12-22T11:35:43.744Z,11.66
2022-12-22T11:38:15.759Z,11.79
2022-12-22T11:40:46.781Z,11.72
2022-12-22T11:43:29.751Z,11.41
2022-12-22T11:46:27.911Z,10.91
2022-12-22T11:49:11.526Z,10.43
2022-12-22T11:51:45.813Z,10.09
2022-12-22T11:54:42.956Z,9.71
2022-12-22T11:57:11.015Z,9.35
2022-12-22T11:59:49.391Z,9.15
2022-12-22T12:02:32.697Z,8.91
2022-12-22T12:05:22.757Z,8.56
2022-12-22T12:07:54.888Z,8.24
2022-12-22T12:10:52.184Z,8.04
2022-12-22T12:13:28.574Z,7.73
2022-12-22T12:16:17.770Z,7.51
2022-12-22T12:18:44.651Z,7.37
2022-12-22T12:21:28.355Z,7.34
2022-12-22T12:23:59.705Z,7.38
2022-12-22T12:26:32.297Z,7.48
2022-12-22T12:29:24.434Z,7.58
2022-12-22T12:32:06.599Z,7.64
2022-12-22T12:34:38.056Z,7.72
2022-12-22T12:37:09.338Z,7.75
2022-12-22T12:39:50.772Z,7.76
2022-12-22T12:42:26.430Z,7.71
2022-12-22T12:44:53.953Z,7.65
2022-12-22T12:47:25.263Z,7.57
2022-12-22T12:50:00.335Z,7.43
2022-12-22T12:52:48.786Z,7.26
2022-12-22T12:55:33.363Z,7.23
2022-12-22T12:58:03.903Z,7.20
2022-12-22T13:00:34.173Z,7.18
2022-12-22T13:03:04.609Z,7.20
2022-12-22T13:05:47.968Z,7.15
2022-12-22T13:08:16.455Z,7.12
2022-12-22T13:10:53.846Z,7.11
2022-12-22T13:13:21.723Z,7.03
2022-12-22T13:16:05.074Z,6.86
2022-12-22T13:18:35.228Z,6.72
2022-12-22T13:21:42.583Z,6.70
2022-12-22T13:24:23.626Z,6.74
2022-12-22T13:26:47.102Z,6.73
2022-12-22T13:29:37.509Z,6.72
2022-12-22T13:32:19.136Z,6.66
2022-12-22T13:35:29.210Z,6.58
2022-12-22T13:37:42.980Z,6.48
2022-12-22T13:40:09.915Z,6.41
2022-12-22T13:42:54.564Z,6.36
2022-12-22T13:45:43.569Z,6.31
2022-12-22T13:48:29.052Z,6.25
2022-12-22T13:50:59.172Z,6.21
2022-12-22T13:54:07.003Z,6.18
2022-12-22T13:56:25.866Z,6.12
2022-12-22T13:58:58.721Z,6.07
2022-12-22T14:01:26.192Z,6.03
2022-12-22T14:04:00.653Z,5.98
2022-12-22T14:06:36.577Z,5.94
2022-12-22T14:09:11.603Z,5.90
2022-12-22T14:11:38.740Z,5.92
2022-12-22T14:14:09.738Z,5.91
2022-12-22T14:16:44.112Z,5.89
2022-12-22T14:19:15.032Z,5.87
2022-12-22T14:21:45.649Z,5.84
2022-12-22T14:24:19.108Z,5.81
2022-12-22T14:26:46.703Z,5.78
2022-12-22T14:29:19.507Z,5.74
2022-12-22T14:31:55.931Z,5.72
2022-12-22T14:34:34.353Z,5.70
2022-12-22T14:37:02.190Z,5.67
2022-12-22T14:39:32.180Z,5.57
2022-12-22T14:42:02.719Z,5.57
2022-12-22T14:44:33.278Z,5.54
2022-12-22T14:47:18.332Z,5.53
2022-12-22T14:49:55.774Z,5.53
2022-12-22T14:52:43.517Z,5.53
2022-12-22T14:55:22.271Z,5.51
2022-12-22T14:57:54.476Z,5.47
2022-12-22T15:00:22.202Z,5.43
2022-12-22T15:02:51.943Z,5.39
2022-12-22T15:05:28.532Z,5.33
2022-12-22T15:08:06.734Z,5.28
2022-12-22T15:10:44.228Z,5.23
2022-12-22T15:13:22.918Z,5.19
2022-12-22T15:15:51.415Z,5.15
2022-12-22T15:18:24.309Z,5.12
2022-12-22T15:20:51.168Z,5.05
2022-12-22T15:23:17.940Z,5.02
2022-12-22T15:25:46.201Z,5.00
2022-12-22T15:28:13.190Z,5.00
2022-12-22T15:30:40.452Z,4.97
2022-12-22T15:33:13.680Z,4.90
2022-12-22T15:35:41.680Z,4.80
2022-12-22T15:38:15.453Z,4.76
2022-12-22T15:40:42.389Z,4.72
2022-12-22T15:43:28.829Z,4.70
2022-12-22T15:45:57.878Z,4.71
2022-12-22T15:48:30.109Z,4.71
2022-12-22T15:50:57.593Z,4.73
2022-12-22T15:53:24.369Z,4.74
2022-12-22T15:55:54.543Z,4.74
2022-12-22T15:58:24.297Z,4.73
2022-12-22T16:00:50.965Z,4.70
2022-12-22T16:03:17.744Z,4.69
2022-12-22T16:05:45.204Z,4.68
2022-12-22T16:08:18.151Z,4.69
2022-12-22T16:10:46.887Z,4.68
2022-12-22T16:13:15.923Z,4.68
2022-12-22T16:15:42.958Z,4.67
2022-12-22T16:18:12.401Z,4.65
2022-12-22T16:20:42.659Z,4.63
2022-12-22T16:23:18.209Z,4.62
2022-12-22T16:25:46.972Z,4.62
2022-12-22T16:28:19.083Z,4.65
2022-12-22T16:30:46.241Z,4.65
2022-12-22T16:33:13.554Z,4.62
2022-12-22T16:35:41.199Z,4.57
2022-12-22T16:38:13.020Z,4.49
2022-12-22T16:40:46.179Z,4.44
2022-12-22T16:46:11.970Z,4.39
2022-12-22T16:48:42.416Z,4.36
2022-12-22T16:51:18.034Z,4.36
2022-12-22T16:53:44.795Z,4.37
2022-12-22T16:56:17.910Z,4.35
2022-12-22T16:58:45.874Z,4.34
2022-12-22T17:01:36.978Z,4.34
2022-12-22T17:04:08.055Z,4.36
2022-12-22T17:06:35.548Z,4.37
2022-12-22T17:09:04.950Z,4.37
2022-12-22T17:11:32.820Z,4.37
2022-12-22T17:14:06.831Z,4.37
2022-12-22T17:16:33.937Z,4.38
2022-12-22T17:19:00.711Z,4.39
2022-12-22T17:21:29.788Z,4.40
2022-12-22T17:24:03.903Z,4.41
2022-12-22T17:26:33.825Z,4.41
2022-12-22T17:29:00.819Z,4.41
2022-12-22T17:31:27.789Z,4.39
2022-12-22T17:33:54.516Z,4.37
2022-12-22T17:36:33.358Z,4.39
2022-12-22T17:39:01.557Z,4.41
2022-12-22T17:41:28.675Z,4.42
2022-12-22T17:43:55.507Z,4.44
2022-12-22T17:46:22.898Z,4.46
2022-12-22T17:48:50.046Z,4.46
2022-12-22T17:51:22.849Z,4.45
2022-12-22T17:53:50.589Z,4.43
2022-12-22T17:56:20.596Z,4.44
2022-12-22T17:58:48.090Z,4.44
2022-12-22T18:01:32.170Z,4.45
2022-12-22T18:03:59.455Z,4.47
2022-12-22T18:06:32.708Z,4.50
2022-12-22T18:08:59.519Z,4.52
2022-12-22T18:11:26.541Z,4.53
2022-12-22T18:13:54.116Z,4.54
2022-12-22T18:16:23.208Z,4.51
2022-12-22T18:18:50.114Z,4.51
2022-12-22T18:21:21.555Z,4.50
2022-12-22T18:23:50.861Z,4.52
2022-12-22T18:26:23.164Z,4.53
2022-12-22T18:29:06.299Z,4.53
2022-12-22T18:31:33.188Z,4.56
2022-12-22T18:33:59.998Z,4.55
2022-12-22T18:36:31.410Z,4.53
2022-12-22T18:39:00.708Z,4.53
2022-12-22T18:41:32.155Z,4.54
2022-12-22T18:43:59.251Z,4.56
2022-12-22T18:46:26.955Z,4.60
2022-12-22T18:48:55.224Z,4.62
2022-12-22T18:51:25.678Z,4.64
2022-12-22T18:53:54.689Z,4.64
2022-12-22T18:56:22.506Z,4.63
2022-12-22T18:58:49.237Z,4.63
2022-12-22T19:01:21.198Z,4.64
2022-12-22T19:03:48.696Z,4.65
2022-12-22T19:06:18.603Z,4.66
2022-12-22T19:08:47.308Z,4.67
2022-12-22T19:11:18.156Z,4.66
2022-12-22T19:13:48.766Z,4.65
2022-12-22T19:16:19.099Z,4.65
2022-12-22T19:18:45.942Z,4.66
2022-12-22T19:21:14.754Z,4.68
2022-12-22T19:23:42.382Z,4.73
2022-12-22T19:26:20.690Z,4.76
2022-12-22T19:28:52.222Z,4.77
2022-12-22T19:31:25.975Z,4.73
2022-12-22T19:33:54.552Z,4.68
2022-12-22T19:36:25.848Z,4.62
2022-12-22T19:39:03.290Z,4.56
2022-12-22T19:41:43.669Z,4.51
2022-12-22T19:44:16.467Z,4.49
2022-12-22T19:46:43.252Z,4.48
2022-12-22T19:49:20.361Z,4.44
2022-12-22T19:51:47.169Z,4.38
2022-12-22T19:54:14.250Z,4.37
2022-12-22T19:56:44.115Z,4.34
2022-12-22T19:59:25.570Z,4.31
2022-12-22T20:01:56.168Z,4.28
2022-12-22T20:04:23.089Z,4.28
2022-12-22T20:06:49.906Z,4.29
2022-12-22T20:09:16.910Z,4.29
2022-12-22T20:11:44.811Z,4.26
2022-12-22T20:14:19.291Z,4.23
2022-12-22T20:16:46.301Z,4.20
2022-12-22T20:19:14.520Z,4.19
2022-12-22T20:21:42.145Z,4.18
2022-12-22T20:24:19.056Z,4.18
2022-12-22T20:26:50.266Z,4.21
2022-12-22T20:29:20.692Z,4.23
2022-12-22T20:31:47.764Z,4.24
2022-12-22T20:34:14.616Z,4.22
2022-12-22T20:36:43.226Z,4.19
2022-12-22T20:39:14.248Z,4.14
2022-12-22T20:41:43.415Z,4.08
2022-12-22T20:44:12.444Z,4.02
2022-12-22T20:46:39.819Z,3.95
2022-12-22T20:49:15.122Z,3.89
2022-12-22T20:51:43.010Z,3.88
2022-12-22T20:54:13.997Z,3.90
2022-12-22T20:56:41.525Z,3.94
2022-12-22T20:59:24.144Z,3.94
2022-12-22T21:02:07.370Z,3.91
2022-12-22T21:04:34.208Z,3.90
2022-12-22T21:07:00.974Z,3.89
2022-12-22T21:09:28.098Z,3.90
2022-12-22T21:11:54.805Z,3.93
2022-12-22T21:14:21.641Z,3.98
2022-12-22T21:16:48.819Z,4.01
2022-12-22T21:19:30.957Z,3.99
2022-12-22T21:21:57.699Z,3.94
2022-12-22T21:24:24.412Z,3.90
2022-12-22T21:26:55.132Z,3.88
2022-12-22T21:29:24.879Z,3.88
2022-12-22T21:31:51.971Z,3.89
2022-12-22T21:34:20.528Z,3.93
2022-12-22T21:36:52.288Z,3.95
2022-12-22T21:39:26.071Z,4.00
2022-12-22T21:42:00.014Z,4.02
2022-12-22T21:44:28.049Z,4.03
2022-12-22T21:46:56.379Z,4.08
2022-12-22T21:49:26.476Z,4.14
2022-12-22T21:51:54.474Z,4.19
2022-12-22T21:54:23.668Z,4.26
2022-12-22T21:56:51.587Z,4.32
2022-12-22T21:59:18.605Z,4.36
2022-12-22T22:01:45.578Z,4.36
2022-12-22T22:04:13.654Z,4.40
2022-12-22T22:06:40.578Z,4.42
2022-12-22T22:09:07.549Z,4.46
2022-12-22T22:11:54.846Z,4.50
2022-12-22T22:14:21.852Z,4.52
2022-12-22T22:16:48.774Z,4.53
2022-12-22T22:19:17.841Z,4.51
2022-12-22T22:21:46.309Z,4.51
2022-12-22T22:24:13.171Z,4.51
2022-12-22T22:26:40.150Z,4.52
2022-12-22T22:29:06.908Z,4.53
2022-12-22T22:31:33.841Z,4.57
2022-12-22T22:34:00.777Z,4.58
2022-12-22T22:36:28.505Z,4.58
2022-12-22T22:38:55.527Z,4.57
2022-12-22T22:41:22.230Z,4.56
2022-12-22T22:43:48.937Z,4.59
2022-12-22T22:46:15.737Z,4.58
2022-12-22T22:48:42.502Z,4.62
2022-12-22T22:51:10.803Z,4.65
2022-12-22T22:53:37.573Z,4.69
2022-12-22T22:56:04.581Z,4.67
2022-12-22T22:58:31.568Z,4.69
2022-12-22T23:01:14.654Z,4.71
2022-12-22T23:03:41.845Z,4.74
2022-12-22T23:06:11.938Z,4.74
2022-12-22T23:08:39.088Z,4.78
2022-12-22T23:11:10.577Z,4.80
2022-12-22T23:13:37.291Z,4.79
2022-12-22T23:16:04.269Z,4.83
2022-12-22T23:18:32.334Z,4.84
2022-12-22T23:21:01.266Z,4.88
2022-12-22T23:23:29.289Z,4.91
2022-12-22T23:25:56.043Z,4.92
2022-12-22T23:28:22.962Z,4.91
2022-12-22T23:30:51.299Z,4.91
2022-12-22T23:33:20.459Z,4.94
2022-12-22T23:35:49.799Z,4.93
2022-12-22T23:38:18.621Z,4.97
2022-12-22T23:40:54.498Z,4.97
2022-12-22T23:43:21.821Z,4.97
2022-12-22T23:45:48.559Z,4.94
2022-12-22T23:48:15.681Z,4.94
2022-12-22T23:50:45.814Z,4.93
2022-12-22T23:53:12.542Z,4.92
2022-12-22T23:55:44.718Z,4.91
2022-12-22T23:58:11.976Z,4.88
